Harrow, Canada
Current Conditions -  °F | °C
As of 7:34 AM on Thursday 18 Dec 2014 (Local Time) from KONZ Reporting Station
Overcast Overcast  
Wind Chill: 23°   Ceiling: 2200
Heat Index: 30°   Visibility: 10mi
Dew Point: 25°   Wind: 7mph
Humidity: 80%   Direction: 260°W
Pressure: 30.19"   Gusts: NA
Location:  42.03°N, 82.92°W
Report Text: KONZ 181234Z AUTO 26006KT 10SM OVC022 M01/M04 A3019 RMK AO2
Loading
Personal Weather Stations






























Interactive Weather Map New forecast layout! Learn more

10-Day Weather Forecast

Advertisements
Track Severe Weather on mobile